createdAt,value
2018-09-18T00:02:24.770Z,56.10
2018-09-18T00:04:54.504Z,56.37
2018-09-18T00:07:24.697Z,56.57
2018-09-18T00:09:55.124Z,56.67
2018-09-18T00:12:24.595Z,56.79
2018-09-18T00:14:54.480Z,57.05
2018-09-18T00:17:23.932Z,57.44
2018-09-18T00:19:54.304Z,57.52
2018-09-18T00:22:25.253Z,57.89
2018-09-18T00:24:55.625Z,57.88
2018-09-18T00:27:25.026Z,57.67
2018-09-18T00:29:54.897Z,58.06
2018-09-18T00:32:24.706Z,57.93
2018-09-18T00:34:54.712Z,58.10
2018-09-18T00:37:24.127Z,57.76
2018-09-18T00:39:53.429Z,58.22
2018-09-18T00:42:23.083Z,58.18
2018-09-18T00:44:52.438Z,58.34
2018-09-18T00:47:21.933Z,58.48
2018-09-18T00:49:51.262Z,58.71
2018-09-18T00:52:20.656Z,58.72
2018-09-18T00:54:50.155Z,58.20
2018-09-18T00:57:19.836Z,58.41
2018-09-18T00:59:49.181Z,58.59
2018-09-18T01:02:18.643Z,58.60
2018-09-18T01:04:49.064Z,58.39
2018-09-18T01:07:18.417Z,58.56
2018-09-18T01:09:48.954Z,58.22
2018-09-18T01:12:18.376Z,58.45
2018-09-18T01:14:48.845Z,58.55
2018-09-18T01:17:18.275Z,58.10
2018-09-18T01:19:48.467Z,58.39
2018-09-18T01:22:17.781Z,58.38
2018-09-18T01:24:47.531Z,58.57
2018-09-18T01:27:17.499Z,58.94
2018-09-18T01:29:47.144Z,58.70
2018-09-18T01:32:16.957Z,59.00
2018-09-18T01:34:47.690Z,58.78
2018-09-18T01:37:17.019Z,58.96
2018-09-18T01:39:49.522Z,58.78
2018-09-18T01:42:20.283Z,58.95
2018-09-18T01:44:50.819Z,58.77
2018-09-18T01:47:20.256Z,58.95
2018-09-18T01:49:50.631Z,58.75
2018-09-18T01:52:19.936Z,58.43
2018-09-18T01:54:49.831Z,58.74
2018-09-18T01:57:19.384Z,58.69
2018-09-18T01:59:51.357Z,58.40
2018-09-18T02:02:21.050Z,58.65
2018-09-18T02:04:50.778Z,58.43
2018-09-18T02:07:20.180Z,58.52
2018-09-18T02:09:50.654Z,58.18
2018-09-18T02:12:20.794Z,58.07
2018-09-18T02:14:50.544Z,58.41
2018-09-18T02:17:19.971Z,58.31
2018-09-18T02:19:50.062Z,58.27
2018-09-18T02:22:19.403Z,57.93
2018-09-18T02:24:48.973Z,58.55
2018-09-18T02:27:18.271Z,58.33
2018-09-18T02:29:47.846Z,58.42
2018-09-18T02:32:19.013Z,57.97
2018-09-18T02:34:48.865Z,58.04
2018-09-18T02:37:18.464Z,58.14
2018-09-18T02:39:47.953Z,58.35
2018-09-18T02:42:17.712Z,58.33
2018-09-18T02:44:47.412Z,58.31
2018-09-18T02:47:18.292Z,58.49
2018-09-18T02:49:48.361Z,57.97
2018-09-18T02:52:18.177Z,58.13
2018-09-18T02:54:48.160Z,58.19
2018-09-18T02:57:18.874Z,58.33
2018-09-18T02:59:48.384Z,58.21
2018-09-18T03:02:19.013Z,58.20
2018-09-18T03:04:48.534Z,58.04
2018-09-18T03:07:18.137Z,58.04
2018-09-18T03:09:49.384Z,57.78
2018-09-18T03:12:19.274Z,57.62
2018-09-18T03:14:48.638Z,57.54
2018-09-18T03:17:19.125Z,57.42
2018-09-18T03:19:49.670Z,57.73
2018-09-18T03:22:19.454Z,56.99
2018-09-18T03:24:48.982Z,57.17
2018-09-18T03:27:19.337Z,57.17
2018-09-18T03:29:48.820Z,57.42
2018-09-18T03:32:20.073Z,57.20
2018-09-18T03:34:49.747Z,57.26
2018-09-18T03:37:19.996Z,56.96
2018-09-18T03:39:49.400Z,57.53
2018-09-18T03:42:19.094Z,57.12
2018-09-18T03:44:49.440Z,57.08
2018-09-18T03:47:23.115Z,57.22
2018-09-18T03:49:54.158Z,57.17
2018-09-18T03:52:24.931Z,57.21
2018-09-18T03:54:54.422Z,57.13
2018-09-18T03:57:23.826Z,56.74
2018-09-18T03:59:53.296Z,56.89
2018-09-18T04:02:22.925Z,56.77
2018-09-18T04:04:52.523Z,57.54
2018-09-18T04:07:22.120Z,57.15
2018-09-18T04:09:51.549Z,56.90
2018-09-18T04:12:21.232Z,56.78
2018-09-18T04:14:50.743Z,57.21
2018-09-18T04:17:20.600Z,56.66
2018-09-18T04:19:49.974Z,56.77
2018-09-18T04:22:19.402Z,56.79
2018-09-18T04:24:49.387Z,56.62
2018-09-18T04:27:19.483Z,56.97
2018-09-18T04:29:49.440Z,56.57
2018-09-18T04:32:18.817Z,56.81
2018-09-18T04:34:48.188Z,56.97
2018-09-18T04:37:18.152Z,56.66
2018-09-18T04:39:47.938Z,56.76
2018-09-18T04:42:17.909Z,56.79
2018-09-18T04:44:47.411Z,56.58
2018-09-18T04:47:16.851Z,56.86
2018-09-18T04:49:46.981Z,56.75
2018-09-18T04:52:16.486Z,57.29
2018-09-18T04:54:46.270Z,57.24
2018-09-18T04:57:15.884Z,57.16
2018-09-18T04:59:49.909Z,57.33
2018-09-18T05:02:20.156Z,56.97
2018-09-18T05:04:49.640Z,56.91
2018-09-18T05:07:19.405Z,57.35
2018-09-18T05:10:08.297Z,57.17
2018-09-18T05:12:56.984Z,57.84
2018-09-18T05:15:31.162Z,57.60
2018-09-18T05:18:00.497Z,57.62
2018-09-18T05:20:31.001Z,58.07
2018-09-18T05:23:00.344Z,58.16
2018-09-18T05:25:30.184Z,58.53
2018-09-18T05:27:59.545Z,58.67
2018-09-18T05:30:30.306Z,58.88
2018-09-18T05:33:01.316Z,58.81
2018-09-18T05:35:33.409Z,58.82
2018-09-18T05:38:02.894Z,59.30
2018-09-18T05:40:33.476Z,58.51
2018-09-18T05:43:03.244Z,58.49
2018-09-18T05:45:33.770Z,58.69
2018-09-18T05:48:03.348Z,58.76
2018-09-18T05:50:36.364Z,58.55
2018-09-18T05:53:06.068Z,58.38
2018-09-18T05:55:35.850Z,57.97
2018-09-18T05:58:07.132Z,58.11
2018-09-18T06:00:37.549Z,58.00
2018-09-18T06:03:09.616Z,58.28
2018-09-18T06:05:46.678Z,58.01
2018-09-18T06:08:15.989Z,57.95
2018-09-18T06:10:45.480Z,57.50
2018-09-18T06:13:15.014Z,57.56
2018-09-18T06:15:47.053Z,57.34
2018-09-18T06:18:16.556Z,57.19
2018-09-18T06:20:45.967Z,57.44
2018-09-18T06:23:15.277Z,57.37
2018-09-18T06:25:45.682Z,57.24
2018-09-18T06:28:15.278Z,57.36
2018-09-18T06:30:45.364Z,57.07
2018-09-18T06:33:14.828Z,56.81
2018-09-18T06:35:44.218Z,56.35
2018-09-18T06:38:14.132Z,56.54
2018-09-18T06:40:44.031Z,56.53
2018-09-18T06:43:13.332Z,56.21
2018-09-18T06:45:42.935Z,55.41
2018-09-18T06:48:12.853Z,55.82
2018-09-18T06:50:43.950Z,55.38
2018-09-18T06:53:13.519Z,55.66
2018-09-18T06:55:43.031Z,55.80
2018-09-18T06:58:13.021Z,56.14
2018-09-18T07:00:44.337Z,55.65
2018-09-18T07:03:19.356Z,55.19
2018-09-18T07:05:49.290Z,55.23
2018-09-18T07:08:20.660Z,54.91
2018-09-18T07:10:51.436Z,55.04
2018-09-18T07:13:21.847Z,54.39
2018-09-18T07:15:51.490Z,54.35
2018-09-18T07:18:27.356Z,54.26
2018-09-18T07:20:58.857Z,54.92
2018-09-18T07:23:29.607Z,53.96
2018-09-18T07:25:59.518Z,54.71
2018-09-18T07:28:30.057Z,53.72
2018-09-18T07:30:59.482Z,53.33
2018-09-18T07:33:30.227Z,53.19
2018-09-18T07:35:59.910Z,53.26
2018-09-18T07:38:30.107Z,52.76
2018-09-18T07:41:00.293Z,52.75
2018-09-18T07:43:30.272Z,52.61
2018-09-18T07:45:59.881Z,52.31
2018-09-18T07:48:34.555Z,52.30
2018-09-18T07:51:07.754Z,52.11
2018-09-18T07:53:37.214Z,52.04
2018-09-18T07:56:07.423Z,51.88
2018-09-18T07:58:36.932Z,51.53
2018-09-18T08:01:06.371Z,51.67
2018-09-18T08:03:35.715Z,51.77
2018-09-18T08:06:05.293Z,51.17
2018-09-18T08:08:34.778Z,51.68
2018-09-18T08:11:05.228Z,50.40
2018-09-18T08:13:36.061Z,50.41
2018-09-18T08:16:06.381Z,50.34
2018-09-18T08:18:35.936Z,50.13
2018-09-18T08:21:05.285Z,50.05
2018-09-18T08:23:34.690Z,49.73
2018-09-18T08:26:04.167Z,49.48
2018-09-18T08:28:33.599Z,49.05
2018-09-18T08:31:03.170Z,49.25
2018-09-18T08:33:32.531Z,49.23
2018-09-18T08:36:02.155Z,49.29
2018-09-18T08:38:31.751Z,49.37
2018-09-18T08:41:01.188Z,48.87
2018-09-18T08:43:32.062Z,48.96
2018-09-18T08:46:02.003Z,48.15
2018-09-18T08:48:32.336Z,47.73
2018-09-18T08:51:02.602Z,47.92
2018-09-18T08:53:33.004Z,47.41
2018-09-18T08:56:02.449Z,47.17
2018-09-18T08:58:32.501Z,47.54
2018-09-18T09:01:02.123Z,46.25
2018-09-18T09:03:31.873Z,46.55
2018-09-18T09:06:01.920Z,46.13
2018-09-18T09:08:31.823Z,46.14
2018-09-18T09:11:02.329Z,45.41
2018-09-18T09:13:32.934Z,45.37
2018-09-18T09:16:04.831Z,45.18
2018-09-18T09:18:35.719Z,45.71
2018-09-18T09:21:06.284Z,44.08
2018-09-18T09:23:35.579Z,44.15
2018-09-18T09:26:05.157Z,44.00
2018-09-18T09:28:35.648Z,44.09
2018-09-18T09:31:05.006Z,44.27
2018-09-18T09:33:34.697Z,44.18
2018-09-18T09:36:04.272Z,43.40
2018-09-18T09:38:33.665Z,42.96
2018-09-18T09:41:06.931Z,43.53
2018-09-18T09:43:36.354Z,43.31
2018-09-18T09:46:05.791Z,42.30
2018-09-18T09:48:36.073Z,42.21
2018-09-18T09:51:06.160Z,42.36
2018-09-18T09:53:35.964Z,42.07
2018-09-18T09:56:06.087Z,41.79
2018-09-18T09:58:36.098Z,41.68
2018-09-18T10:01:10.885Z,41.92
2018-09-18T10:03:40.543Z,41.44
2018-09-18T10:06:10.217Z,41.05
2018-09-18T10:08:39.787Z,40.91
2018-09-18T10:11:10.299Z,42.31
2018-09-18T10:13:39.734Z,41.16
2018-09-18T10:16:09.424Z,41.21
2018-09-18T10:18:39.530Z,40.46
2018-09-18T10:21:10.173Z,41.00
2018-09-18T10:23:39.577Z,40.25
2018-09-18T10:26:09.324Z,40.55
2018-09-18T10:28:39.466Z,40.87
2018-09-18T10:31:09.344Z,40.36
2018-09-18T10:33:39.011Z,40.08
2018-09-18T10:36:08.753Z,41.74
2018-09-18T10:38:38.620Z,42.35
2018-09-18T10:41:08.371Z,42.58
2018-09-18T10:43:37.985Z,42.40
2018-09-18T10:46:07.458Z,41.93
2018-09-18T10:48:42.100Z,42.17
2018-09-18T10:51:12.519Z,43.02
2018-09-18T10:53:42.002Z,43.09
2018-09-18T10:56:12.180Z,42.96
2018-09-18T10:58:41.833Z,41.99
2018-09-18T11:01:11.248Z,41.56
2018-09-18T11:03:40.878Z,41.57
2018-09-18T11:06:10.171Z,41.83
2018-09-18T11:08:39.504Z,42.09
2018-09-18T11:11:09.001Z,41.25
2018-09-18T11:13:38.773Z,40.95
2018-09-18T11:16:08.489Z,40.21
2018-09-18T11:18:37.957Z,39.74
2018-09-18T11:21:07.315Z,39.35
2018-09-18T11:23:37.906Z,38.38
2018-09-18T11:26:07.345Z,37.49
2018-09-18T11:28:36.869Z,36.76
2018-09-18T11:31:06.763Z,37.51
2018-09-18T11:33:37.285Z,37.77
2018-09-18T11:36:07.935Z,35.25
2018-09-18T11:38:39.424Z,33.46
2018-09-18T11:41:16.571Z,32.43
2018-09-18T11:43:46.051Z,32.07
2018-09-18T11:46:15.355Z,31.84
2018-09-18T11:48:44.953Z,31.58
2018-09-18T11:51:14.675Z,31.62
2018-09-18T11:53:44.197Z,31.70
2018-09-18T11:56:13.636Z,30.76
2018-09-18T11:58:42.990Z,30.34
2018-09-18T12:01:12.606Z,29.61
2018-09-18T12:03:41.943Z,28.34
2018-09-18T12:06:11.493Z,26.92
2018-09-18T12:08:40.973Z,27.21
2018-09-18T12:11:11.094Z,27.10
2018-09-18T12:13:40.522Z,27.05
2018-09-18T12:16:11.923Z,26.43
2018-09-18T12:18:42.115Z,24.77
2018-09-18T12:21:12.427Z,24.39
2018-09-18T12:23:42.323Z,24.04
2018-09-18T12:26:12.143Z,23.41
2018-09-18T12:28:42.562Z,23.36
2018-09-18T12:31:12.676Z,23.21
2018-09-18T12:33:42.998Z,23.14
2018-09-18T12:36:14.965Z,23.42
2018-09-18T12:38:47.049Z,22.58
2018-09-18T12:41:17.461Z,22.31
2018-09-18T12:43:47.411Z,21.81
2018-09-18T12:46:17.128Z,20.81
2018-09-18T12:48:47.667Z,21.21
2018-09-18T12:51:18.419Z,21.53
2018-09-18T12:53:49.183Z,21.20
2018-09-18T12:56:20.096Z,21.12
2018-09-18T12:58:50.526Z,20.86
2018-09-18T13:01:20.057Z,21.52
2018-09-18T13:03:50.340Z,20.98
2018-09-18T13:06:23.620Z,20.75
2018-09-18T13:08:55.989Z,20.73
2018-09-18T13:11:25.587Z,20.98
2018-09-18T13:13:55.345Z,20.38
2018-09-18T13:16:26.350Z,20.97
2018-09-18T13:18:56.225Z,20.85
2018-09-18T13:21:26.683Z,20.32
2018-09-18T13:23:58.080Z,20.19
2018-09-18T13:26:27.721Z,20.64
2018-09-18T13:28:58.630Z,20.23
2018-09-18T13:31:29.392Z,19.81
2018-09-18T13:33:59.030Z,20.62
2018-09-18T13:36:29.610Z,20.41
2018-09-18T13:38:59.996Z,21.00
2018-09-18T13:41:30.161Z,21.96
2018-09-18T13:43:59.877Z,21.20
2018-09-18T13:46:30.179Z,20.94
2018-09-18T13:49:02.169Z,20.92
2018-09-18T13:51:33.049Z,21.12
2018-09-18T13:54:02.911Z,20.61
2018-09-18T13:56:33.335Z,21.27
2018-09-18T13:59:03.324Z,21.13
2018-09-18T14:01:34.640Z,19.93
2018-09-18T14:04:04.092Z,20.61
2018-09-18T14:06:33.869Z,20.70
2018-09-18T14:09:04.234Z,20.73
2018-09-18T14:11:34.937Z,21.08
2018-09-18T14:14:06.262Z,21.39
2018-09-18T14:16:36.723Z,21.40
2018-09-18T14:19:07.487Z,21.00
2018-09-18T14:21:37.531Z,21.09
2018-09-18T14:24:07.090Z,20.71
2018-09-18T14:26:36.552Z,20.75
2018-09-18T14:29:06.986Z,22.54
2018-09-18T14:31:36.575Z,22.03
2018-09-18T14:34:08.136Z,22.81
2018-09-18T14:36:37.607Z,22.94
2018-09-18T14:39:10.857Z,24.40
2018-09-18T14:41:40.964Z,23.55
2018-09-18T14:44:12.127Z,25.65
2018-09-18T14:46:41.683Z,23.71
2018-09-18T14:49:11.650Z,23.87
2018-09-18T14:51:41.130Z,24.34
2018-09-18T14:54:12.070Z,24.65
2018-09-18T14:56:41.357Z,25.18
2018-09-18T14:59:11.669Z,25.30
2018-09-18T15:01:41.120Z,25.03
2018-09-18T15:04:12.378Z,25.25
2018-09-18T15:06:44.294Z,25.42
2018-09-18T15:09:14.434Z,25.89
2018-09-18T15:11:43.752Z,25.85
2018-09-18T15:14:13.187Z,25.68
2018-09-18T15:16:43.331Z,26.37
2018-09-18T15:19:13.269Z,25.48
2018-09-18T15:21:43.951Z,26.41
2018-09-18T15:24:13.585Z,26.78
2018-09-18T15:26:43.092Z,25.93
2018-09-18T15:29:14.022Z,26.66
2018-09-18T15:31:43.518Z,27.03
2018-09-18T15:34:15.275Z,27.41
2018-09-18T15:36:45.267Z,27.57
2018-09-18T15:39:14.791Z,28.57
2018-09-18T15:41:44.585Z,27.70
2018-09-18T15:44:14.441Z,28.65
2018-09-18T15:46:44.332Z,28.06
2018-09-18T15:49:15.448Z,29.02
2018-09-18T15:51:45.149Z,29.60
2018-09-18T15:54:15.419Z,30.49
2018-09-18T15:56:46.097Z,30.08
2018-09-18T15:59:16.055Z,30.93
2018-09-18T16:01:45.691Z,30.33
2018-09-18T16:04:16.027Z,30.88
2018-09-18T16:06:47.730Z,31.14
2018-09-18T16:09:17.997Z,31.41
2018-09-18T16:11:47.746Z,30.95
2018-09-18T16:14:17.272Z,31.65
2018-09-18T16:16:48.073Z,31.69
2018-09-18T16:19:17.759Z,31.28
2018-09-18T16:21:48.700Z,32.11
2018-09-18T16:24:18.756Z,32.20
2018-09-18T16:26:49.726Z,32.52
2018-09-18T16:29:19.826Z,32.89
2018-09-18T16:31:51.111Z,32.91
2018-09-18T16:34:21.985Z,32.87
2018-09-18T16:36:51.749Z,33.07
2018-09-18T16:39:22.687Z,34.03
2018-09-18T16:41:53.470Z,33.57
2018-09-18T16:44:23.953Z,33.41
2018-09-18T16:46:55.059Z,33.88
2018-09-18T16:49:25.800Z,33.88
2018-09-18T16:51:55.901Z,34.15
2018-09-18T16:54:25.377Z,33.97
2018-09-18T16:57:00.083Z,33.86
2018-09-18T16:59:29.636Z,34.04
2018-09-18T17:01:59.209Z,34.57
2018-09-18T17:04:28.690Z,33.97
2018-09-18T17:06:58.079Z,34.72
2018-09-18T17:09:29.156Z,35.02
2018-09-18T17:12:00.640Z,34.59
2018-09-18T17:14:29.971Z,35.26
2018-09-18T17:17:01.131Z,35.64
2018-09-18T17:19:30.584Z,36.18
2018-09-18T17:21:59.958Z,36.27
2018-09-18T17:24:29.403Z,35.79
2018-09-18T17:27:00.827Z,35.80
2018-09-18T17:29:30.488Z,36.07
2018-09-18T17:32:01.134Z,36.10
2018-09-18T17:34:30.790Z,36.28
2018-09-18T17:37:00.233Z,36.66
2018-09-18T17:39:29.856Z,37.13
2018-09-18T17:42:02.640Z,37.58
2018-09-18T17:44:32.273Z,37.36
2018-09-18T17:47:01.689Z,38.03
2018-09-18T17:49:31.250Z,37.20
2018-09-18T17:52:00.766Z,37.31
2018-09-18T17:54:30.315Z,37.49
2018-09-18T17:57:04.358Z,37.26
2018-09-18T17:59:34.464Z,37.20
2018-09-18T18:02:04.684Z,37.64
2018-09-18T18:04:34.224Z,37.63
2018-09-18T18:07:04.170Z,37.10
2018-09-18T18:09:33.700Z,37.51
2018-09-18T18:12:03.619Z,37.33
2018-09-18T18:14:33.967Z,37.07
2018-09-18T18:17:04.772Z,37.02
2018-09-18T18:19:34.438Z,37.24
2018-09-18T18:22:05.169Z,37.94
2018-09-18T18:24:34.748Z,38.03
2018-09-18T18:27:07.501Z,38.09
2018-09-18T18:29:41.794Z,38.33
2018-09-18T18:32:11.518Z,38.19
2018-09-18T18:34:40.940Z,38.42
2018-09-18T18:37:10.771Z,38.77
2018-09-18T18:39:40.336Z,39.26
2018-09-18T18:42:10.265Z,39.40
2018-09-18T18:44:40.238Z,39.14
2018-09-18T18:47:10.738Z,39.67
2018-09-18T18:49:40.774Z,40.37
2018-09-18T18:52:10.458Z,40.66
2018-09-18T18:54:40.368Z,41.27
2018-09-18T18:57:10.594Z,41.27
2018-09-18T18:59:41.153Z,42.22
2018-09-18T19:02:10.886Z,42.39
2018-09-18T19:04:43.247Z,42.73
2018-09-18T19:07:14.785Z,43.53
2018-09-18T19:09:45.035Z,43.51
2018-09-18T19:12:15.274Z,43.89
2018-09-18T19:14:45.485Z,44.69
2018-09-18T19:17:15.565Z,44.60
2018-09-18T19:19:45.682Z,44.79
2018-09-18T19:22:15.259Z,45.14
2018-09-18T19:24:46.061Z,45.34
2018-09-18T19:27:16.014Z,45.56
2018-09-18T19:29:46.946Z,45.88
2018-09-18T19:32:17.525Z,45.72
2018-09-18T19:34:48.213Z,46.34
2018-09-18T19:37:20.242Z,46.39
2018-09-18T19:39:50.841Z,47.04
2018-09-18T19:42:20.645Z,46.89
2018-09-18T19:44:50.556Z,47.03
2018-09-18T19:47:23.765Z,47.67
2018-09-18T19:49:58.228Z,47.76
2018-09-18T19:52:29.688Z,47.77
2018-09-18T19:55:00.085Z,47.66
2018-09-18T19:57:30.251Z,47.94
2018-09-18T20:00:01.810Z,48.42
2018-09-18T20:02:32.764Z,48.78
2018-09-18T20:05:02.513Z,48.97
2018-09-18T20:07:32.974Z,49.09
2018-09-18T20:10:13.849Z,49.26
2018-09-18T20:12:44.464Z,49.44
2018-09-18T20:15:15.327Z,49.84
2018-09-18T20:17:45.296Z,50.08
2018-09-18T20:20:16.575Z,50.19
2018-09-18T20:22:47.396Z,50.34
2018-09-18T20:25:18.094Z,50.49
2018-09-18T20:27:48.574Z,50.80
2018-09-18T20:30:19.101Z,50.75
2018-09-18T20:32:49.031Z,50.87
2018-09-18T20:35:18.890Z,50.83
2018-09-18T20:37:49.180Z,51.15
2018-09-18T20:40:21.021Z,51.17
2018-09-18T20:42:51.766Z,50.54
2018-09-18T20:45:21.444Z,50.93
2018-09-18T20:47:51.261Z,51.21
2018-09-18T20:50:23.355Z,50.94
2018-09-18T20:52:54.799Z,51.61
2018-09-18T20:55:25.041Z,51.80
2018-09-18T20:57:54.681Z,51.48
2018-09-18T21:00:24.776Z,51.93
2018-09-18T21:02:54.658Z,52.19
2018-09-18T21:05:24.960Z,52.33
2018-09-18T21:07:54.436Z,52.29
2018-09-18T21:10:24.157Z,52.67
2018-09-18T21:12:54.825Z,52.41
2018-09-18T21:15:24.649Z,52.64
2018-09-18T21:17:54.526Z,53.02
2018-09-18T21:20:23.979Z,53.06
2018-09-18T21:22:53.947Z,53.38
2018-09-18T21:25:39.060Z,53.23
2018-09-18T21:28:08.342Z,53.45
2018-09-18T21:30:37.821Z,53.90
2018-09-18T21:33:07.688Z,53.87
2018-09-18T21:35:37.219Z,54.14
2018-09-18T21:38:06.640Z,54.01
2018-09-18T21:40:35.984Z,54.33
2018-09-18T21:43:05.275Z,54.38
2018-09-18T21:45:34.469Z,54.75
2018-09-18T21:48:03.785Z,55.06
2018-09-18T21:50:38.336Z,54.70
2018-09-18T21:53:09.864Z,55.13
2018-09-18T21:55:39.598Z,55.11
2018-09-18T21:58:09.512Z,55.27
2018-09-18T22:00:39.020Z,55.27
2018-09-18T22:03:08.541Z,55.41
2018-09-18T22:05:38.505Z,55.39
2018-09-18T22:08:07.846Z,56.11
2018-09-18T22:10:37.168Z,56.20
2018-09-18T22:13:06.525Z,56.86
2018-09-18T22:15:35.830Z,57.44
2018-09-18T22:18:06.255Z,57.06
2018-09-18T22:20:38.338Z,57.75
2018-09-18T22:23:08.839Z,58.05
2018-09-18T22:25:39.383Z,58.33
2018-09-18T22:28:10.757Z,58.18
2018-09-18T22:30:42.307Z,58.35
2018-09-18T22:33:12.104Z,59.09
2018-09-18T22:35:41.986Z,58.88
2018-09-18T22:38:12.150Z,59.24
2018-09-18T22:40:42.313Z,59.44
2018-09-18T22:43:13.820Z,59.58
2018-09-18T22:45:44.234Z,59.57
2018-09-18T22:48:15.573Z,59.72
2018-09-18T22:50:46.271Z,59.83
2018-09-18T22:53:16.440Z,59.87
2018-09-18T22:55:45.842Z,60.29
2018-09-18T22:58:15.153Z,60.49
2018-09-18T23:00:44.620Z,60.46
2018-09-18T23:03:13.979Z,60.83
2018-09-18T23:05:43.466Z,60.94
2018-09-18T23:08:13.121Z,60.91
2018-09-18T23:10:42.687Z,60.67
2018-09-18T23:13:12.333Z,61.09
2018-09-18T23:15:41.647Z,61.18
2018-09-18T23:18:11.037Z,61.14
2018-09-18T23:20:41.584Z,61.35
2018-09-18T23:23:11.047Z,61.37
2018-09-18T23:25:40.399Z,61.61
2018-09-18T23:28:09.659Z,61.93
2018-09-18T23:30:39.100Z,62.54
2018-09-18T23:33:08.378Z,62.83
2018-09-18T23:35:37.856Z,63.34
2018-09-18T23:38:07.309Z,63.63
2018-09-18T23:40:36.866Z,64.30
2018-09-18T23:43:06.216Z,64.31
2018-09-18T23:45:35.822Z,64.40
2018-09-18T23:48:06.311Z,64.34
2018-09-18T23:50:35.843Z,64.59
2018-09-18T23:53:05.219Z,64.96
2018-09-18T23:55:35.809Z,64.93
2018-09-18T23:58:06.179Z,64.80
